Time;durP1;ratioP1;P1;durP2;ratioP2;P2;SDS_P1;SDS_P2;PMS_P1;PMS_P2;Temp;Humidity;BMP_temperature;BMP_pressure;BME280_temperature;BME280_humidity;BME280_pressure;Samples;Min_cycle;Max_cycle;Signal;HPM_P1;HPM_P2
2023/03/31 00:00:10;;;;;;;14.45;3.53;;;;;;;;;;5055105;28;20091;-72
2023/03/31 00:02:40;;;;;;;10.18;3.25;;;;;;;;;;5055378;28;20029;-72
2023/03/31 00:05:07;;;;;;;12.30;3.58;;;;;;;;;;5055079;28;20029;-72
2023/03/31 00:07:36;;;;;;;17.27;3.88;;;;;;;;;;5055073;28;20027;-72
2023/03/31 00:10:06;;;;;;;16.77;4.32;;;;;;;;;;5055029;28;20033;-72
2023/03/31 00:12:33;;;;;;;18.70;4.18;;;;;;;;;;5054912;28;20059;-72
2023/03/31 00:14:59;;;;;;;11.07;3.92;;;;;;;;;;5054804;28;20039;-72
2023/03/31 00:17:25;;;;;;;11.20;3.67;;;;;;;;;;5054879;28;20405;-72
2023/03/31 00:19:52;;;;;;;11.27;3.90;;;;;;;;;;5054883;28;20023;-72
2023/03/31 00:22:21;;;;;;;17.33;3.67;;;;;;;;;;5054800;28;20029;-72
2023/03/31 00:24:48;;;;;;;11.77;3.58;;;;;;;;;;5054758;28;20021;-72
2023/03/31 00:27:14;;;;;;;14.25;3.92;;;;;;;;;;5054726;28;20519;-72
2023/03/31 00:29:42;;;;;;;14.52;3.65;;;;;;;;;;5054613;28;20049;-72
2023/03/31 00:32:09;;;;;;;18.17;3.65;;;;;;;;;;5054727;28;20040;-72
2023/03/31 00:34:36;;;;;;;13.52;3.60;;;;;;;;;;5054239;28;20044;-73
2023/03/31 00:37:02;;;;;;;16.20;4.18;;;;;;;;;;5054858;28;20031;-72
2023/03/31 00:39:34;;;;;;;12.93;3.75;;;;;;;;;;5054620;28;20039;-73
2023/03/31 00:42:03;;;;;;;13.05;3.42;;;;;;;;;;5054950;28;20021;-72
2023/03/31 00:44:33;;;;;;;13.13;3.53;;;;;;;;;;5054348;28;20034;-72
2023/03/31 00:47:01;;;;;;;12.90;3.28;;;;;;;;;;5054563;28;20028;-72
2023/03/31 00:49:42;;;;;;;14.13;3.65;;;;;;;;;;5054462;28;20054;-72
2023/03/31 00:52:18;;;;;;;15.40;3.53;;;;;;;;;;5054342;28;20390;-72
2023/03/31 00:54:47;;;;;;;10.13;3.33;;;;;;;;;;5054268;28;20044;-72
2023/03/31 00:57:14;;;;;;;7.38;2.90;;;;;;;;;;5054398;28;20039;-72
2023/03/31 00:59:44;;;;;;;11.32;3.40;;;;;;;;;;5053998;28;20026;-72
2023/03/31 01:02:12;;;;;;;11.30;3.75;;;;;;;;;;5054272;28;20027;-72
2023/03/31 01:04:41;;;;;;;13.02;4.00;;;;;;;;;;5053971;28;20021;-72
2023/03/31 01:07:17;;;;;;;14.95;3.72;;;;;;;;;;5053799;28;20405;-72
2023/03/31 01:09:46;;;;;;;11.93;3.47;;;;;;;;;;5053953;28;20021;-72
2023/03/31 01:12:13;;;;;;;14.25;3.85;;;;;;;;;;5053850;28;20035;-72
2023/03/31 01:14:40;;;;;;;15.10;3.90;;;;;;;;;;5053889;28;20037;-72
2023/03/31 01:17:08;;;;;;;10.73;3.35;;;;;;;;;;5053722;28;20082;-72
2023/03/31 01:19:53;;;;;;;17.70;4.60;;;;;;;;;;5053916;28;20017;-72
2023/03/31 01:22:38;;;;;;;11.80;3.70;;;;;;;;;;5053533;28;20431;-72
2023/03/31 01:25:16;;;;;;;12.77;3.53;;;;;;;;;;5053693;28;20024;-72
2023/03/31 01:27:54;;;;;;;12.32;3.45;;;;;;;;;;5053414;28;20033;-72
2023/03/31 01:30:40;;;;;;;12.43;3.83;;;;;;;;;;5053565;28;20041;-72
2023/03/31 01:33:19;;;;;;;11.55;3.92;;;;;;;;;;5030927;28;20048;-72
2023/03/31 01:36:05;;;;;;;14.15;3.63;;;;;;;;;;5031157;28;20041;-72
2023/03/31 01:38:37;;;;;;;12.77;3.88;;;;;;;;;;5031215;28;20029;-72
2023/03/31 01:41:15;;;;;;;13.48;3.80;;;;;;;;;;5031392;28;20029;-72
2023/03/31 01:44:01;;;;;;;16.02;3.92;;;;;;;;;;5031097;28;20037;-72
2023/03/31 01:46:30;;;;;;;17.42;4.75;;;;;;;;;;5030608;28;20021;-72
2023/03/31 01:49:06;;;;;;;18.77;4.20;;;;;;;;;;5031444;28;20037;-72
2023/03/31 01:51:35;;;;;;;17.33;4.05;;;;;;;;;;5031170;28;20025;-72
2023/03/31 01:54:24;;;;;;;13.13;3.80;;;;;;;;;;5030939;28;20047;-73
2023/03/31 01:56:58;;;;;;;12.50;3.83;;;;;;;;;;5023627;28;20065;-72
2023/03/31 01:59:33;;;;;;;14.20;3.70;;;;;;;;;;5030887;28;20033;-72
2023/03/31 02:02:03;;;;;;;14.98;4.00;;;;;;;;;;5030872;28;20021;-72
2023/03/31 02:04:41;;;;;;;15.15;3.65;;;;;;;;;;5030805;28;20030;-73
2023/03/31 02:07:11;;;;;;;8.90;3.35;;;;;;;;;;5031026;28;20035;-71
2023/03/31 02:09:41;;;;;;;14.98;4.30;;;;;;;;;;5031232;28;20478;-72
2023/03/31 02:12:09;;;;;;;12.35;3.90;;;;;;;;;;5048264;28;20037;-72
2023/03/31 02:14:37;;;;;;;14.38;4.70;;;;;;;;;;5032328;28;20383;-72
2023/03/31 02:17:07;;;;;;;16.83;4.07;;;;;;;;;;5032708;28;20467;-72
2023/03/31 02:19:38;;;;;;;18.30;4.18;;;;;;;;;;5032638;28;20024;-72
2023/03/31 02:22:06;;;;;;;12.60;3.95;;;;;;;;;;5032622;28;20021;-73
2023/03/31 02:24:33;;;;;;;16.40;4.03;;;;;;;;;;5031496;28;20025;-72
2023/03/31 02:27:09;;;;;;;16.45;4.85;;;;;;;;;;5032668;28;20497;-72
2023/03/31 02:29:36;;;;;;;9.63;3.70;;;;;;;;;;5030965;28;20053;-73
2023/03/31 02:32:15;;;;;;;13.77;3.70;;;;;;;;;;5032770;28;20062;-72
2023/03/31 02:34:42;;;;;;;12.70;3.92;;;;;;;;;;5032494;28;20087;-72
2023/03/31 02:37:08;;;;;;;13.23;4.05;;;;;;;;;;5031380;28;20028;-72
2023/03/31 02:39:35;;;;;;;13.52;3.75;;;;;;;;;;5032354;28;20367;-72
2023/03/31 02:42:05;;;;;;;13.07;4.18;;;;;;;;;;5032530;28;20051;-72
2023/03/31 02:44:36;;;;;;;9.47;3.83;;;;;;;;;;5032115;28;20021;-72
2023/03/31 02:47:03;;;;;;;10.65;3.80;;;;;;;;;;5032231;28;20268;-72
2023/03/31 02:49:30;;;;;;;13.85;4.07;;;;;;;;;;5032271;28;20467;-72
2023/03/31 02:52:02;;;;;;;14.55;4.28;;;;;;;;;;5032043;28;20032;-72
2023/03/31 02:54:29;;;;;;;15.50;4.57;;;;;;;;;;5032091;28;20038;-72
2023/03/31 02:57:10;;;;;;;12.93;4.05;;;;;;;;;;5031343;28;20500;-72
2023/03/31 02:59:45;;;;;;;13.05;4.35;;;;;;;;;;5039820;28;20400;-72
2023/03/31 03:02:17;;;;;;;8.23;3.90;;;;;;;;;;5052028;28;20017;-72
2023/03/31 03:05:02;;;;;;;15.30;4.32;;;;;;;;;;5051964;28;20029;-72
2023/03/31 03:07:37;;;;;;;15.40;3.95;;;;;;;;;;5051936;28;20025;-72
2023/03/31 03:10:24;;;;;;;11.77;3.95;;;;;;;;;;5052116;28;20070;-72
2023/03/31 03:12:50;;;;;;;15.05;4.68;;;;;;;;;;5051538;28;20044;-72
2023/03/31 03:15:21;;;;;;;12.20;4.60;;;;;;;;;;5051945;28;20154;-72
2023/03/31 03:17:48;;;;;;;17.98;4.82;;;;;;;;;;5051933;28;20490;-72
2023/03/31 03:20:15;;;;;;;11.38;4.20;;;;;;;;;;5051876;28;20032;-72
2023/03/31 03:22:41;;;;;;;12.00;4.10;;;;;;;;;;5051907;28;20036;-72
2023/03/31 03:25:09;;;;;;;12.63;3.97;;;;;;;;;;5051725;28;20024;-72
2023/03/31 03:27:36;;;;;;;17.30;4.85;;;;;;;;;;5051814;28;20021;-72
2023/03/31 03:30:03;;;;;;;15.15;4.53;;;;;;;;;;5051712;28;20041;-72
2023/03/31 03:32:30;;;;;;;9.38;4.53;;;;;;;;;;5051801;28;20028;-72
2023/03/31 03:34:56;;;;;;;10.00;3.88;;;;;;;;;;5051569;28;20037;-72
2023/03/31 03:37:22;;;;;;;12.15;3.80;;;;;;;;;;5051967;28;20021;-73
2023/03/31 03:39:49;;;;;;;15.27;4.22;;;;;;;;;;5051653;28;20025;-73
2023/03/31 03:42:15;;;;;;;11.18;4.32;;;;;;;;;;5051222;28;20482;-72
2023/03/31 03:44:42;;;;;;;11.55;4.60;;;;;;;;;;5051762;28;20017;-72
2023/03/31 03:47:08;;;;;;;14.48;4.28;;;;;;;;;;5051507;28;20405;-72
2023/03/31 03:49:34;;;;;;;10.50;3.58;;;;;;;;;;5051585;28;20017;-72
2023/03/31 03:52:01;;;;;;;20.30;4.55;;;;;;;;;;5051435;28;20041;-72
2023/03/31 03:54:27;;;;;;;16.33;4.50;;;;;;;;;;5051362;28;20029;-72
2023/03/31 03:56:53;;;;;;;13.63;4.47;;;;;;;;;;5051554;28;20029;-72
2023/03/31 03:59:20;;;;;;;13.38;4.00;;;;;;;;;;5051685;28;20025;-72
2023/03/31 04:01:46;;;;;;;12.02;4.10;;;;;;;;;;5051345;28;20013;-73
2023/03/31 04:04:12;;;;;;;17.40;4.10;;;;;;;;;;5051637;28;20036;-72
2023/03/31 04:06:39;;;;;;;7.60;3.85;;;;;;;;;;5051351;28;20397;-72
2023/03/31 04:09:05;;;;;;;10.35;4.20;;;;;;;;;;5053024;28;20507;-72
2023/03/31 04:11:32;;;;;;;14.38;4.32;;;;;;;;;;5053805;28;20452;-72
2023/03/31 04:13:58;;;;;;;11.80;4.10;;;;;;;;;;5054910;28;20047;-72
2023/03/31 04:16:24;;;;;;;13.95;4.57;;;;;;;;;;5053662;28;20194;-73
2023/03/31 04:18:57;;;;;;;13.27;3.90;;;;;;;;;;5053981;28;20043;-73
2023/03/31 04:21:24;;;;;;;9.75;3.83;;;;;;;;;;5054855;28;20024;-73
2023/03/31 04:23:57;;;;;;;12.65;4.18;;;;;;;;;;5054782;28;20021;-72
2023/03/31 04:26:29;;;;;;;15.00;4.35;;;;;;;;;;5054483;28;20029;-72
2023/03/31 04:28:59;;;;;;;13.93;4.40;;;;;;;;;;5054536;28;20045;-72
2023/03/31 04:31:25;;;;;;;16.20;4.10;;;;;;;;;;5054700;28;20478;-72
2023/03/31 04:33:52;;;;;;;13.20;4.68;;;;;;;;;;5054538;28;20059;-72
2023/03/31 04:36:18;;;;;;;15.40;5.00;;;;;;;;;;5054854;28;20027;-72
2023/03/31 04:38:45;;;;;;;14.25;5.35;;;;;;;;;;5054548;28;20030;-72
2023/03/31 04:41:12;;;;;;;13.68;4.60;;;;;;;;;;5054258;28;20020;-72
2023/03/31 04:43:39;;;;;;;9.23;4.57;;;;;;;;;;5054522;28;20029;-73
2023/03/31 04:46:05;;;;;;;13.57;4.32;;;;;;;;;;5054385;28;20025;-72
2023/03/31 04:48:31;;;;;;;14.23;5.40;;;;;;;;;;5054392;28;20035;-72
2023/03/31 04:50:58;;;;;;;12.68;4.90;;;;;;;;;;5054222;28;20029;-72
2023/03/31 04:53:25;;;;;;;17.98;4.70;;;;;;;;;;5054319;28;20033;-72
2023/03/31 04:55:51;;;;;;;12.50;4.72;;;;;;;;;;5053963;28;20062;-72
2023/03/31 04:58:17;;;;;;;12.55;4.85;;;;;;;;;;5054380;28;20021;-72
2023/03/31 05:00:44;;;;;;;14.15;5.15;;;;;;;;;;5086264;28;20086;-73
2023/03/31 05:03:10;;;;;;;17.90;4.88;;;;;;;;;;5054134;28;20496;-72
2023/03/31 05:05:37;;;;;;;13.27;4.63;;;;;;;;;;5054362;28;20035;-72
2023/03/31 05:08:03;;;;;;;11.23;4.82;;;;;;;;;;5054068;28;20494;-72
2023/03/31 05:10:30;;;;;;;21.02;4.35;;;;;;;;;;5053980;28;20039;-72
2023/03/31 05:12:56;;;;;;;14.00;4.88;;;;;;;;;;5053761;28;20033;-72
2023/03/31 05:15:23;;;;;;;15.65;4.70;;;;;;;;;;5053862;28;20320;-72
2023/03/31 05:17:51;;;;;;;13.70;5.00;;;;;;;;;;5053878;28;20031;-72
2023/03/31 05:20:18;;;;;;;15.55;5.57;;;;;;;;;;5052822;28;20029;-72
2023/03/31 05:22:45;;;;;;;16.10;4.82;;;;;;;;;;5053532;28;20385;-72
2023/03/31 05:25:17;;;;;;;15.50;5.10;;;;;;;;;;5053697;28;20039;-72
2023/03/31 05:27:47;;;;;;;16.90;5.63;;;;;;;;;;5053477;28;20401;-72
2023/03/31 05:30:14;;;;;;;17.77;5.80;;;;;;;;;;5053579;28;20057;-72
2023/03/31 05:32:41;;;;;;;15.52;4.55;;;;;;;;;;5053284;28;20021;-73
2023/03/31 05:35:07;;;;;;;15.68;4.50;;;;;;;;;;5053483;28;20498;-72
2023/03/31 05:37:34;;;;;;;16.73;5.25;;;;;;;;;;5053311;28;20029;-72
2023/03/31 05:40:00;;;;;;;13.95;5.13;;;;;;;;;;5053342;28;20375;-72
2023/03/31 05:42:26;;;;;;;13.73;5.13;;;;;;;;;;5053159;28;20021;-73
2023/03/31 05:44:53;;;;;;;14.18;4.70;;;;;;;;;;5053594;28;20029;-72
2023/03/31 05:47:19;;;;;;;17.98;6.10;;;;;;;;;;5053493;28;20028;-72
2023/03/31 05:49:45;;;;;;;17.42;5.40;;;;;;;;;;5053157;28;20031;-72
2023/03/31 05:52:12;;;;;;;14.68;5.95;;;;;;;;;;5053175;28;20025;-73
2023/03/31 05:54:38;;;;;;;18.33;4.97;;;;;;;;;;5053171;28;20055;-73
2023/03/31 05:57:04;;;;;;;17.25;4.65;;;;;;;;;;5049604;28;20282;-73
2023/03/31 05:59:31;;;;;;;12.40;4.38;;;;;;;;;;5052070;28;20021;-72
2023/03/31 06:01:58;;;;;;;18.60;5.45;;;;;;;;;;5052474;28;20444;-72
2023/03/31 06:04:24;;;;;;;15.93;5.07;;;;;;;;;;5052765;28;20023;-72
2023/03/31 06:06:50;;;;;;;15.77;5.15;;;;;;;;;;5048429;28;20052;-72
2023/03/31 06:09:17;;;;;;;11.88;4.88;;;;;;;;;;5050342;28;20025;-72
2023/03/31 06:11:43;;;;;;;14.63;4.63;;;;;;;;;;5051534;28;20033;-70
2023/03/31 06:14:10;;;;;;;13.43;5.47;;;;;;;;;;5052019;28;20397;-70
2023/03/31 06:16:36;;;;;;;12.85;5.00;;;;;;;;;;5052262;28;20024;-71
2023/03/31 06:19:03;;;;;;;11.43;5.10;;;;;;;;;;5051950;28;20070;-72
2023/03/31 06:21:30;;;;;;;12.88;5.68;;;;;;;;;;5051795;28;20025;-72
2023/03/31 06:23:57;;;;;;;12.50;5.10;;;;;;;;;;5050869;28;20032;-72
2023/03/31 06:26:23;;;;;;;14.30;5.05;;;;;;;;;;5051842;28;20542;-70
2023/03/31 06:28:50;;;;;;;8.82;4.40;;;;;;;;;;5051820;28;20037;-72
2023/03/31 06:31:17;;;;;;;16.10;4.93;;;;;;;;;;5050060;28;20044;-70
2023/03/31 06:33:44;;;;;;;15.32;5.60;;;;;;;;;;5052115;28;20032;-71
2023/03/31 06:36:11;;;;;;;16.95;5.47;;;;;;;;;;5051764;28;20024;-71
2023/03/31 06:38:38;;;;;;;15.90;4.82;;;;;;;;;;5050157;28;20025;-71
2023/03/31 06:41:05;;;;;;;13.70;5.38;;;;;;;;;;5051583;28;20059;-71
2023/03/31 06:43:32;;;;;;;14.43;5.20;;;;;;;;;;5051544;28;20029;-72
2023/03/31 06:45:58;;;;;;;15.95;5.53;;;;;;;;;;5051841;28;20037;-73
2023/03/31 06:48:25;;;;;;;21.50;5.85;;;;;;;;;;5052050;28;20021;-73
2023/03/31 06:50:54;;;;;;;14.20;5.03;;;;;;;;;;5051261;28;20029;-72
2023/03/31 06:53:21;;;;;;;23.83;8.63;;;;;;;;;;5051607;28;20504;-72
2023/03/31 06:55:47;;;;;;;23.33;9.93;;;;;;;;;;5051657;28;20014;-72
2023/03/31 06:58:14;;;;;;;16.92;7.63;;;;;;;;;;5051396;28;20529;-72
2023/03/31 07:00:40;;;;;;;17.60;5.78;;;;;;;;;;5051945;28;20021;-72
2023/03/31 07:03:10;;;;;;;18.83;5.18;;;;;;;;;;5051723;28;20025;-72
2023/03/31 07:05:36;;;;;;;17.65;4.72;;;;;;;;;;5050886;28;20033;-72
2023/03/31 07:08:03;;;;;;;20.85;5.78;;;;;;;;;;5051486;28;20389;-72
2023/03/31 07:10:31;;;;;;;20.48;5.07;;;;;;;;;;5051280;28;20032;-73
2023/03/31 07:12:57;;;;;;;20.33;4.95;;;;;;;;;;5051353;28;20025;-72
2023/03/31 07:15:24;;;;;;;22.27;5.32;;;;;;;;;;5051533;28;20389;-72
2023/03/31 07:17:52;;;;;;;18.73;5.60;;;;;;;;;;5051410;28;20375;-72
2023/03/31 07:20:19;;;;;;;14.35;4.63;;;;;;;;;;5050884;28;20033;-70
2023/03/31 07:22:47;;;;;;;24.25;6.00;;;;;;;;;;5051286;28;20017;-72
2023/03/31 07:25:14;;;;;;;17.25;6.00;;;;;;;;;;5049990;28;20063;-73
2023/03/31 07:27:40;;;;;;;20.10;5.68;;;;;;;;;;5051103;28;20021;-73
2023/03/31 07:30:08;;;;;;;19.15;5.28;;;;;;;;;;5051259;28;20608;-73
2023/03/31 07:32:38;;;;;;;17.63;4.88;;;;;;;;;;5050641;28;20017;-73
2023/03/31 07:35:05;;;;;;;19.35;5.25;;;;;;;;;;5046866;28;20051;-71
2023/03/31 07:37:40;;;;;;;24.45;5.57;;;;;;;;;;5045768;28;20029;-73
2023/03/31 07:40:06;;;;;;;18.23;5.30;;;;;;;;;;5051210;28;20040;-72
2023/03/31 07:42:33;;;;;;;17.52;5.05;;;;;;;;;;5051021;28;20176;-72
2023/03/31 07:45:00;;;;;;;16.60;5.10;;;;;;;;;;5054565;28;20028;-73
2023/03/31 07:47:26;;;;;;;18.35;5.25;;;;;;;;;;5055010;28;20024;-72
2023/03/31 07:49:53;;;;;;;18.40;6.15;;;;;;;;;;5054515;28;20591;-71
2023/03/31 07:52:20;;;;;;;22.00;5.40;;;;;;;;;;5054947;28;20029;-72
2023/03/31 07:54:46;;;;;;;15.80;5.57;;;;;;;;;;5054886;28;20035;-72
2023/03/31 07:57:13;;;;;;;14.30;5.25;;;;;;;;;;5055219;28;20043;-72
2023/03/31 07:59:40;;;;;;;15.27;5.53;;;;;;;;;;5054792;28;20017;-73
2023/03/31 08:02:06;;;;;;;22.58;5.13;;;;;;;;;;5054876;28;20029;-72
2023/03/31 08:04:33;;;;;;;18.13;5.88;;;;;;;;;;5054763;28;20029;-72
2023/03/31 08:06:59;;;;;;;15.55;5.03;;;;;;;;;;5053652;28;20378;-73
2023/03/31 08:09:26;;;;;;;21.88;5.13;;;;;;;;;;5054736;28;20021;-73
2023/03/31 08:11:52;;;;;;;24.23;4.85;;;;;;;;;;5054609;28;20478;-72
2023/03/31 08:14:18;;;;;;;19.02;5.05;;;;;;;;;;5054511;28;20051;-72
2023/03/31 08:16:44;;;;;;;16.02;4.32;;;;;;;;;;5054566;28;20078;-73
2023/03/31 08:19:11;;;;;;;17.67;3.72;;;;;;;;;;5053968;28;20017;-72
2023/03/31 08:21:37;;;;;;;20.70;3.97;;;;;;;;;;5054215;28;20025;-72
2023/03/31 08:24:05;;;;;;;22.48;4.55;;;;;;;;;;5054836;28;20027;-72
2023/03/31 08:26:31;;;;;;;28.48;5.28;;;;;;;;;;5054492;28;20037;-72
2023/03/31 08:28:58;;;;;;;19.35;3.92;;;;;;;;;;5054086;28;20343;-72
2023/03/31 08:31:25;;;;;;;16.80;4.30;;;;;;;;;;5054386;28;20035;-72
2023/03/31 08:33:51;;;;;;;21.10;4.88;;;;;;;;;;5054256;28;20062;-72
2023/03/31 08:36:17;;;;;;;22.15;4.35;;;;;;;;;;5052888;28;20021;-72
2023/03/31 08:38:48;;;;;;;20.55;4.30;;;;;;;;;;5054207;28;20087;-72
2023/03/31 08:41:27;;;;;;;18.50;4.18;;;;;;;;;;5054489;28;20507;-73
2023/03/31 08:43:55;;;;;;;21.08;4.30;;;;;;;;;;5054304;28;20033;-72
2023/03/31 08:46:22;;;;;;;22.63;5.03;;;;;;;;;;5053898;28;20025;-72
2023/03/31 08:48:53;;;;;;;26.25;4.55;;;;;;;;;;5053148;28;20021;-72
2023/03/31 08:51:26;;;;;;;29.85;4.70;;;;;;;;;;5055213;28;20032;-73
2023/03/31 08:54:01;;;;;;;21.63;4.57;;;;;;;;;;5053817;28;20044;-73
2023/03/31 08:56:28;;;;;;;20.45;5.43;;;;;;;;;;5052535;28;20017;-73
2023/03/31 08:59:00;;;;;;;24.08;4.55;;;;;;;;;;5053069;28;20033;-72
2023/03/31 09:01:45;;;;;;;19.15;3.80;;;;;;;;;;5054502;28;20032;-72
2023/03/31 09:04:50;;;;;;;23.15;3.97;;;;;;;;;;5053605;28;20490;-72
2023/03/31 09:07:31;;;;;;;17.42;3.75;;;;;;;;;;5031244;28;20017;-72
2023/03/31 09:09:57;;;;;;;18.50;4.22;;;;;;;;;;5031398;28;20047;-73
2023/03/31 09:12:30;;;;;;;20.40;4.30;;;;;;;;;;5031415;28;20449;-72
2023/03/31 09:15:08;;;;;;;15.20;3.83;;;;;;;;;;5031046;28;20045;-72
2023/03/31 09:17:43;;;;;;;22.10;4.20;;;;;;;;;;5031377;28;20485;-72
2023/03/31 09:20:21;;;;;;;24.42;4.57;;;;;;;;;;5031204;28;20029;-72
2023/03/31 09:22:50;;;;;;;23.13;4.60;;;;;;;;;;5031760;28;20398;-72
2023/03/31 09:25:20;;;;;;;23.30;4.32;;;;;;;;;;5045909;28;20037;-73
2023/03/31 09:27:49;;;;;;;19.75;4.18;;;;;;;;;;5030936;28;20403;-72
2023/03/31 09:30:20;;;;;;;22.90;3.35;;;;;;;;;;5030678;28;20522;-73
2023/03/31 09:32:52;;;;;;;23.65;5.03;;;;;;;;;;5031171;28;20032;-72
2023/03/31 09:35:20;;;;;;;24.00;3.95;;;;;;;;;;5030775;28;20111;-73
2023/03/31 09:37:47;;;;;;;21.65;4.78;;;;;;;;;;5030973;28;20022;-72
2023/03/31 09:40:21;;;;;;;17.50;3.90;;;;;;;;;;5033482;28;20360;-72
2023/03/31 09:42:51;;;;;;;18.25;4.57;;;;;;;;;;5053024;28;20032;-72
2023/03/31 09:45:18;;;;;;;21.20;4.53;;;;;;;;;;5052648;28;20029;-72
2023/03/31 09:47:46;;;;;;;26.27;4.72;;;;;;;;;;5052683;28;20013;-73
2023/03/31 09:50:14;;;;;;;24.52;5.22;;;;;;;;;;5052978;28;20024;-72
2023/03/31 09:52:42;;;;;;;26.95;5.13;;;;;;;;;;5052851;28;20035;-72
2023/03/31 09:55:18;;;;;;;18.42;4.65;;;;;;;;;;5052930;28;20032;-72
2023/03/31 09:57:45;;;;;;;17.42;5.05;;;;;;;;;;5052254;28;20035;-72
2023/03/31 10:00:17;;;;;;;23.10;4.80;;;;;;;;;;5050784;28;20024;-72
2023/03/31 10:02:48;;;;;;;26.52;5.85;;;;;;;;;;5052767;28;20024;-72
2023/03/31 10:05:21;;;;;;;26.17;5.28;;;;;;;;;;5052426;28;20032;-72
2023/03/31 10:07:48;;;;;;;24.60;5.47;;;;;;;;;;5052220;28;20024;-72
2023/03/31 10:10:29;;;;;;;22.20;4.88;;;;;;;;;;5052292;28;20017;-72
2023/03/31 10:12:55;;;;;;;22.98;5.40;;;;;;;;;;5052212;28;20029;-73
2023/03/31 10:15:25;;;;;;;24.60;5.97;;;;;;;;;;5052765;28;20110;-73
2023/03/31 10:17:51;;;;;;;24.45;5.35;;;;;;;;;;5052694;28;20025;-72
2023/03/31 10:20:30;;;;;;;22.95;5.20;;;;;;;;;;5052190;28;20033;-72
2023/03/31 10:23:01;;;;;;;19.60;4.50;;;;;;;;;;5052170;28;20019;-73
2023/03/31 10:25:28;;;;;;;20.00;5.10;;;;;;;;;;5052023;28;20029;-72
2023/03/31 10:27:55;;;;;;;20.00;4.40;;;;;;;;;;5051787;28;20396;-72
2023/03/31 10:30:23;;;;;;;15.90;4.82;;;;;;;;;;5052059;28;20055;-73
2023/03/31 10:32:50;;;;;;;16.30;4.47;;;;;;;;;;5052170;28;20035;-73
2023/03/31 10:35:33;;;;;;;15.45;4.55;;;;;;;;;;5051923;28;20041;-73
2023/03/31 10:38:05;;;;;;;14.35;4.10;;;;;;;;;;5052230;28;20037;-72
2023/03/31 10:40:32;;;;;;;19.90;3.92;;;;;;;;;;5051779;28;20519;-73
2023/03/31 10:43:13;;;;;;;13.57;4.20;;;;;;;;;;5051811;28;20572;-73
2023/03/31 10:45:47;;;;;;;14.43;4.50;;;;;;;;;;5052050;28;20039;-73
2023/03/31 10:48:17;;;;;;;17.38;4.32;;;;;;;;;;5052159;28;20021;-72
2023/03/31 10:50:44;;;;;;;;;;;;;;;;;;5052352;28;20032;-72
2023/03/31 10:53:14;;;;;;;20.58;4.63;;;;;;;;;;5051912;28;19909;-73
2023/03/31 10:55:56;;;;;;;21.55;5.50;;;;;;;;;;5050510;28;20025;-72
2023/03/31 10:58:34;;;;;;;19.35;5.10;;;;;;;;;;5050499;28;20032;-73
2023/03/31 11:01:19;;;;;;;19.10;5.18;;;;;;;;;;5051633;28;20021;-72
2023/03/31 11:03:45;;;;;;;19.27;5.47;;;;;;;;;;5051814;28;20021;-72
2023/03/31 11:06:32;;;;;;;18.00;5.38;;;;;;;;;;5051986;28;20035;-73
2023/03/31 11:09:11;;;;;;;14.40;5.10;;;;;;;;;;5051484;28;20447;-73
2023/03/31 11:11:40;;;;;;;16.70;5.38;;;;;;;;;;5051797;28;20014;-72
2023/03/31 11:14:33;;;;;;;17.40;5.20;;;;;;;;;;5052154;28;20040;-73
2023/03/31 11:16:59;;;;;;;23.23;5.13;;;;;;;;;;5050698;28;20029;-73
2023/03/31 11:19:31;;;;;;;17.30;5.10;;;;;;;;;;5054173;28;20021;-73
2023/03/31 11:22:09;;;;;;;19.13;5.78;;;;;;;;;;5055733;28;20509;-73
2023/03/31 11:24:41;;;;;;;16.60;5.25;;;;;;;;;;5055704;28;20032;-73
2023/03/31 11:27:08;;;;;;;16.92;5.50;;;;;;;;;;5054038;28;20068;-72
2023/03/31 11:29:42;;;;;;;17.10;5.57;;;;;;;;;;5055396;28;20091;-72
2023/03/31 11:32:30;;;;;;;22.25;5.97;;;;;;;;;;5055596;28;20017;-72
2023/03/31 11:35:03;;;;;;;22.55;6.82;;;;;;;;;;5055399;28;20063;-72
2023/03/31 11:37:49;;;;;;;16.02;5.68;;;;;;;;;;5055498;28;20478;-72
2023/03/31 11:40:34;;;;;;;23.30;6.53;;;;;;;;;;5053592;28;20063;-73
2023/03/31 11:43:11;;;;;;;23.65;6.68;;;;;;;;;;5065450;28;20041;-72
2023/03/31 11:45:40;;;;;;;23.85;7.10;;;;;;;;;;5058250;28;20037;-72
2023/03/31 11:48:14;;;;;;;20.67;7.28;;;;;;;;;;5054509;28;20031;-72
2023/03/31 11:50:41;;;;;;;21.83;6.55;;;;;;;;;;5055104;28;20021;-73
2023/03/31 11:53:13;;;;;;;22.98;7.82;;;;;;;;;;5054722;28;20477;-72
2023/03/31 11:55:40;;;;;;;21.35;7.40;;;;;;;;;;5054966;28;20037;-73
2023/03/31 11:58:14;;;;;;;18.73;6.40;;;;;;;;;;5053735;28;20036;-73
2023/03/31 12:00:41;;;;;;;18.67;6.35;;;;;;;;;;5054881;28;20032;-72
2023/03/31 12:03:10;;;;;;;18.85;6.68;;;;;;;;;;5055185;28;20021;-72
2023/03/31 12:05:43;;;;;;;20.17;7.20;;;;;;;;;;5053797;28;20039;-72
2023/03/31 12:08:14;;;;;;;21.08;7.35;;;;;;;;;;5054995;28;20043;-73
2023/03/31 12:10:50;;;;;;;20.88;7.38;;;;;;;;;;5054465;28;20054;-73
2023/03/31 12:13:19;;;;;;;19.83;6.78;;;;;;;;;;5053384;28;20032;-73
2023/03/31 12:15:54;;;;;;;21.70;8.35;;;;;;;;;;5054744;28;20531;-72
2023/03/31 12:18:22;;;;;;;22.25;8.63;;;;;;;;;;5053423;28;20029;-73
2023/03/31 12:20:59;;;;;;;23.65;9.00;;;;;;;;;;5054593;28;20523;-72
2023/03/31 12:23:28;;;;;;;22.92;9.68;;;;;;;;;;5054517;28;20058;-73
2023/03/31 12:26:10;;;;;;;22.30;7.40;;;;;;;;;;5055255;28;20486;-72
2023/03/31 12:28:37;;;;;;;22.75;6.90;;;;;;;;;;5054219;28;20036;-72
2023/03/31 12:31:05;;;;;;;32.58;7.10;;;;;;;;;;5054134;28;20098;-72
2023/03/31 12:33:43;;;;;;;23.60;7.50;;;;;;;;;;5054145;28;20519;-73
2023/03/31 12:36:21;;;;;;;21.10;7.85;;;;;;;;;;5054525;28;20073;-72
2023/03/31 12:39:07;;;;;;;25.20;9.30;;;;;;;;;;5054318;28;20023;-72
2023/03/31 12:41:37;;;;;;;23.05;8.65;;;;;;;;;;5034081;28;20021;-72
2023/03/31 12:44:03;;;;;;;22.30;7.68;;;;;;;;;;5034037;28;20399;-72
2023/03/31 12:46:41;;;;;;;25.77;8.48;;;;;;;;;;5034598;28;20028;-72
2023/03/31 12:49:10;;;;;;;25.30;8.77;;;;;;;;;;5034055;28;20029;-72
2023/03/31 12:51:58;;;;;;;29.73;8.40;;;;;;;;;;5033960;28;20021;-72
2023/03/31 12:54:27;;;;;;;24.58;8.48;;;;;;;;;;5042887;28;20041;-71
2023/03/31 12:57:00;;;;;;;20.27;8.05;;;;;;;;;;5054121;28;20021;-72
2023/03/31 12:59:33;;;;;;;21.20;6.78;;;;;;;;;;5054087;28;20028;-72
2023/03/31 13:02:21;;;;;;;24.98;7.68;;;;;;;;;;5053916;28;20474;-72
2023/03/31 13:04:49;;;;;;;25.02;7.40;;;;;;;;;;5053874;28;20017;-73
2023/03/31 13:07:27;;;;;;;28.58;6.55;;;;;;;;;;5053614;28;20036;-71
2023/03/31 13:09:58;;;;;;;20.83;6.38;;;;;;;;;;5053858;28;20082;-71
2023/03/31 13:12:26;;;;;;;18.77;6.47;;;;;;;;;;5053591;28;20031;-72
2023/03/31 13:14:57;;;;;;;22.30;6.28;;;;;;;;;;5053656;28;20508;-73
2023/03/31 13:17:26;;;;;;;23.98;6.82;;;;;;;;;;5053857;28;20029;-71
2023/03/31 13:19:53;;;;;;;20.17;6.40;;;;;;;;;;5053573;28;20497;-71
2023/03/31 13:22:31;;;;;;;26.88;6.25;;;;;;;;;;5053301;28;20017;-72
2023/03/31 13:25:16;;;;;;;21.55;5.90;;;;;;;;;;5053755;28;20029;-71
2023/03/31 13:27:49;;;;;;;26.40;6.45;;;;;;;;;;5052749;28;20516;-72
2023/03/31 13:30:42;;;;;;;20.35;5.93;;;;;;;;;;5053116;28;20037;-71
2023/03/31 13:33:43;;;;;;;24.25;6.88;;;;;;;;;;5051963;28;20029;-72
2023/03/31 13:36:28;;;;;;;22.85;6.32;;;;;;;;;;5011066;28;20450;-72
2023/03/31 13:38:58;;;;;;;24.92;6.47;;;;;;;;;;5011309;28;20040;-72
2023/03/31 13:41:30;;;;;;;22.73;6.30;;;;;;;;;;5010632;28;20036;-72
2023/03/31 13:43:59;;;;;;;24.65;6.47;;;;;;;;;;4995055;28;20433;-72
2023/03/31 13:46:31;;;;;;;26.40;5.95;;;;;;;;;;5010975;28;20030;-72
2023/03/31 13:49:00;;;;;;;24.33;6.63;;;;;;;;;;5011097;28;20025;-73
2023/03/31 13:51:26;;;;;;;26.35;6.10;;;;;;;;;;5011051;28;20045;-72
2023/03/31 13:53:53;;;;;;;27.42;6.82;;;;;;;;;;5010923;28;20033;-72
2023/03/31 13:56:20;;;;;;;36.78;7.22;;;;;;;;;;5011119;28;20022;-72
2023/03/31 13:58:46;;;;;;;27.58;7.15;;;;;;;;;;5011452;28;20022;-72
2023/03/31 14:01:25;;;;;;;32.35;7.03;;;;;;;;;;5010949;28;20037;-72
2023/03/31 14:03:58;;;;;;;33.17;6.78;;;;;;;;;;5010784;28;20593;-72
2023/03/31 14:06:35;;;;;;;26.33;6.22;;;;;;;;;;5010891;28;20029;-72
2023/03/31 14:09:07;;;;;;;35.05;6.47;;;;;;;;;;5011916;28;20038;-73
2023/03/31 14:11:33;;;;;;;19.70;4.72;;;;;;;;;;5032745;28;20102;-72
2023/03/31 14:14:00;;;;;;;19.70;5.13;;;;;;;;;;5032521;28;20022;-73
2023/03/31 14:16:27;;;;;;;21.25;5.45;;;;;;;;;;5032492;28;20047;-72
2023/03/31 14:18:59;;;;;;;22.52;5.28;;;;;;;;;;5032682;28;20025;-73
2023/03/31 14:21:36;;;;;;;15.05;4.88;;;;;;;;;;5037990;28;20412;-72
2023/03/31 14:24:02;;;;;;;17.65;4.45;;;;;;;;;;5051141;28;20021;-72
2023/03/31 14:26:47;;;;;;;17.23;4.47;;;;;;;;;;5052237;28;20394;-72
2023/03/31 14:29:19;;;;;;;19.92;4.88;;;;;;;;;;5051896;28;20148;-73
2023/03/31 14:32:04;;;;;;;19.25;4.20;;;;;;;;;;5051633;28;20088;-73
2023/03/31 14:34:38;;;;;;;15.80;4.20;;;;;;;;;;5049920;28;20458;-72
2023/03/31 14:37:16;;;;;;;22.00;4.20;;;;;;;;;;5052344;28;20021;-72
2023/03/31 14:39:42;;;;;;;21.42;4.97;;;;;;;;;;5052068;28;20035;-73
2023/03/31 14:42:16;;;;;;;16.50;4.10;;;;;;;;;;5052134;28;20082;-73
2023/03/31 14:44:43;;;;;;;19.70;5.03;;;;;;;;;;5052286;28;20025;-72
2023/03/31 14:47:20;;;;;;;16.08;3.78;;;;;;;;;;5052369;28;20029;-73
2023/03/31 14:49:46;;;;;;;15.45;4.70;;;;;;;;;;5051490;28;20485;-73